Time;durP1;ratioP1;P1;durP2;ratioP2;P2;SDS_P1;SDS_P2;PMS_P1;PMS_P2;Temp;Humidity;BMP_temperature;BMP_pressure;BME280_temperature;BME280_humidity;BME280_pressure;Samples;Min_cycle;Max_cycle;Signal;HPM_P1;HPM_P2
2023/10/30 00:01:32;;;;;;;8.17;5.63;;;10.20;99.90;;;;;;5061320;28;22092;-60
2023/10/30 00:03:58;;;;;;;12.20;6.33;;;10.20;99.90;;;;;;5056356;28;20205;-59
2023/10/30 00:06:24;;;;;;;8.20;6.43;;;10.10;99.90;;;;;;5066332;28;20794;-59
2023/10/30 00:08:49;;;;;;;8.63;5.60;;;10.10;99.90;;;;;;5062740;28;20189;-59
2023/10/30 00:11:15;;;;;;;9.27;5.63;;;10.10;99.90;;;;;;5059305;28;20229;-59
2023/10/30 00:13:41;;;;;;;8.93;5.20;;;10.10;99.90;;;;;;5061535;28;20255;-59
2023/10/30 00:16:10;;;;;;;6.67;4.77;;;10.00;99.90;;;;;;5070838;28;20720;-59
2023/10/30 00:18:36;;;;;;;8.97;5.03;;;9.90;99.90;;;;;;5066185;28;20409;-58
2023/10/30 00:21:01;;;;;;;9.03;5.60;;;9.90;99.90;;;;;;5067914;28;20427;-59
2023/10/30 00:23:28;;;;;;;7.30;5.43;;;9.80;99.90;;;;;;5067739;28;20422;-59
2023/10/30 00:25:54;;;;;;;9.33;5.37;;;9.80;99.90;;;;;;5068901;28;20257;-59
2023/10/30 00:28:20;;;;;;;15.03;5.80;;;9.70;99.90;;;;;;5069860;28;20520;-59
2023/10/30 00:30:46;;;;;;;9.60;5.00;;;9.70;99.90;;;;;;5062421;28;20424;-60
2023/10/30 00:33:13;;;;;;;7.47;4.80;;;9.60;99.90;;;;;;5066988;28;20177;-59
2023/10/30 00:35:38;;;;;;;10.63;5.23;;;9.60;99.90;;;;;;5063126;28;20588;-59
2023/10/30 00:38:04;;;;;;;6.63;5.30;;;9.50;99.90;;;;;;5062664;28;20985;-59
2023/10/30 00:40:30;;;;;;;6.97;5.20;;;9.50;99.90;;;;;;5062499;28;20194;-59
2023/10/30 00:42:56;;;;;;;5.63;4.70;;;9.40;99.90;;;;;;5065811;28;20801;-59
2023/10/30 00:45:22;;;;;;;7.83;4.57;;;9.40;99.90;;;;;;5069576;28;20183;-59
2023/10/30 00:47:47;;;;;;;7.50;4.60;;;9.30;99.90;;;;;;5064226;28;20807;-59
2023/10/30 00:50:13;;;;;;;8.60;5.60;;;9.30;99.90;;;;;;5067331;28;20179;-59
2023/10/30 00:52:39;;;;;;;8.90;6.00;;;9.30;99.90;;;;;;5067891;28;20195;-59
2023/10/30 00:55:04;;;;;;;9.60;5.70;;;9.20;99.90;;;;;;5068565;28;20744;-59
2023/10/30 00:57:30;;;;;;;8.13;5.43;;;9.20;99.90;;;;;;5071163;28;20178;-59
2023/10/30 00:59:56;;;;;;;8.60;5.33;;;9.20;99.90;;;;;;5066087;28;20249;-59
2023/10/30 01:02:21;;;;;;;9.53;5.00;;;9.10;99.90;;;;;;5069270;28;20199;-59
2023/10/30 01:04:47;;;;;;;7.40;4.47;;;9.10;99.90;;;;;;5068166;28;20175;-59
2023/10/30 01:07:13;;;;;;;5.70;3.53;;;9.10;99.90;;;;;;5068664;28;20640;-60
2023/10/30 01:09:38;;;;;;;9.77;4.77;;;9.00;99.90;;;;;;5061711;28;20175;-59
2023/10/30 01:12:04;;;;;;;5.33;4.47;;;9.00;99.90;;;;;;5061248;28;20202;-59
2023/10/30 01:14:29;;;;;;;6.63;4.30;;;8.90;99.90;;;;;;5069176;28;20194;-59
2023/10/30 01:16:55;;;;;;;6.27;4.20;;;8.90;99.90;;;;;;5069576;28;20681;-59
2023/10/30 01:19:21;;;;;;;6.87;3.40;;;8.80;99.90;;;;;;5067676;28;20640;-59
2023/10/30 01:21:46;;;;;;;13.00;3.30;;;8.80;99.90;;;;;;5067090;28;20202;-59
2023/10/30 01:24:12;;;;;;;6.63;3.27;;;8.80;99.90;;;;;;5068398;28;20755;-59
2023/10/30 01:26:39;;;;;;;5.57;3.70;;;8.80;99.90;;;;;;5065949;28;20243;-59
2023/10/30 01:29:04;;;;;;;5.30;4.10;;;8.80;99.90;;;;;;5067584;28;20174;-59
2023/10/30 01:31:30;;;;;;;6.40;4.50;;;8.80;99.90;;;;;;5065664;28;20907;-59
2023/10/30 01:33:56;;;;;;;11.40;4.03;;;8.80;99.90;;;;;;5067999;28;20982;-60
2023/10/30 01:36:23;;;;;;;6.33;4.17;;;8.80;99.90;;;;;;5064447;28;20182;-59
2023/10/30 01:38:48;;;;;;;4.37;3.30;;;8.70;99.90;;;;;;5067170;28;20520;-59
2023/10/30 01:41:14;;;;;;;4.77;3.63;;;8.70;99.90;;;;;;5065461;28;20822;-60
2023/10/30 01:43:39;;;;;;;4.83;3.13;;;8.70;99.90;;;;;;5061702;28;20193;-59
2023/10/30 01:46:08;;;;;;;9.30;3.43;;;8.70;99.90;;;;;;5068499;28;20657;-59
2023/10/30 01:48:35;;;;;;;4.67;3.33;;;8.70;99.90;;;;;;5071351;28;20235;-58
2023/10/30 01:51:02;;;;;;;6.40;3.67;;;8.70;99.90;;;;;;5068172;28;20412;-59
2023/10/30 01:53:30;;;;;;;13.47;3.40;;;8.60;99.90;;;;;;5063868;28;20962;-59
2023/10/30 01:55:56;;;;;;;4.20;3.40;;;8.60;99.90;;;;;;5068722;28;20793;-59
2023/10/30 01:58:23;;;;;;;4.70;3.60;;;8.60;99.90;;;;;;5067131;28;20499;-59
2023/10/30 02:00:50;;;;;;;4.47;3.47;;;8.50;99.90;;;;;;5066241;28;20397;-59
2023/10/30 02:03:16;;;;;;;10.17;3.63;;;8.50;99.90;;;;;;5065333;28;20444;-59
2023/10/30 02:05:42;;;;;;;5.67;3.73;;;8.50;99.90;;;;;;5066133;28;20405;-60
2023/10/30 02:08:09;;;;;;;11.93;4.13;;;8.40;99.90;;;;;;5067742;28;20398;-60
2023/10/30 02:10:35;;;;;;;3.60;3.30;;;8.40;99.90;;;;;;5065677;28;20223;-60
2023/10/30 02:13:05;;;;;;;7.40;3.63;;;8.40;99.90;;;;;;5066953;28;20437;-59
2023/10/30 02:15:31;;;;;;;4.90;3.83;;;8.30;99.90;;;;;;5067649;28;20453;-59
2023/10/30 02:17:56;;;;;;;12.50;4.00;;;8.30;99.90;;;;;;5064508;28;20412;-59
2023/10/30 02:20:22;;;;;;;9.27;3.30;;;8.20;99.90;;;;;;5064496;28;20191;-59
2023/10/30 02:22:48;;;;;;;3.73;3.43;;;8.20;99.90;;;;;;5067991;28;20210;-59
2023/10/30 02:25:22;;;;;;;8.50;3.97;;;8.20;99.90;;;;;;5066752;28;20198;-59
2023/10/30 02:27:51;;;;;;;4.90;3.60;;;8.10;99.90;;;;;;5058494;28;20460;-59
2023/10/30 02:30:17;;;;;;;7.37;4.33;;;8.10;99.90;;;;;;5065607;28;20452;-59
2023/10/30 02:32:44;;;;;;;8.00;4.70;;;8.10;99.90;;;;;;5065889;28;20479;-59
2023/10/30 02:35:15;;;;;;;5.97;4.13;;;8.00;99.90;;;;;;5064254;28;20195;-59
2023/10/30 02:37:41;;;;;;;4.60;3.90;;;8.00;99.90;;;;;;5066544;28;20856;-59
2023/10/30 02:40:07;;;;;;;3.87;3.30;;;8.00;99.90;;;;;;5070453;28;20425;-59
2023/10/30 02:42:33;;;;;;;5.33;3.53;;;8.00;99.90;;;;;;5067030;28;20483;-59
2023/10/30 02:44:59;;;;;;;3.90;3.50;;;8.00;99.90;;;;;;5059124;28;20880;-60
2023/10/30 02:47:25;;;;;;;5.40;3.30;;;8.10;99.90;;;;;;5067870;28;20190;-59
2023/10/30 02:49:51;;;;;;;4.10;3.37;;;8.10;99.90;;;;;;5064556;28;20178;-59
2023/10/30 02:52:18;;;;;;;4.03;3.30;;;8.10;99.90;;;;;;5066161;28;20216;-59
2023/10/30 02:54:44;;;;;;;6.03;3.27;;;8.10;99.90;;;;;;5063494;28;20464;-59
2023/10/30 02:57:10;;;;;;;5.40;3.37;;;8.10;99.90;;;;;;5065097;28;20424;-59
2023/10/30 02:59:36;;;;;;;5.60;3.73;;;8.10;99.90;;;;;;5064882;28;20421;-59
2023/10/30 03:02:02;;;;;;;5.93;3.17;;;8.20;99.90;;;;;;5068426;28;20269;-59
2023/10/30 03:04:29;;;;;;;4.53;3.13;;;8.20;99.90;;;;;;5062661;28;20478;-59
2023/10/30 03:06:58;;;;;;;4.23;3.00;;;8.20;99.90;;;;;;5061421;28;20554;-59
2023/10/30 03:09:28;;;;;;;3.10;2.80;;;8.20;99.90;;;;;;5066899;28;20427;-59
2023/10/30 03:11:54;;;;;;;7.57;3.10;;;8.20;99.90;;;;;;5059990;28;20494;-60
2023/10/30 03:14:19;;;;;;;3.63;2.83;;;8.10;99.90;;;;;;5066323;28;20449;-59
2023/10/30 03:16:45;;;;;;;4.93;3.00;;;8.10;99.90;;;;;;5064899;28;20540;-59
2023/10/30 03:19:10;;;;;;;6.20;2.80;;;8.10;99.90;;;;;;5064697;28;20185;-59
2023/10/30 03:21:36;;;;;;;4.13;3.03;;;8.00;99.90;;;;;;5059281;28;20728;-60
2023/10/30 03:24:02;;;;;;;5.43;3.07;;;8.00;99.90;;;;;;5066148;28;20178;-59
2023/10/30 03:26:29;;;;;;;3.50;2.63;;;7.90;99.90;;;;;;5059907;28;20269;-58
2023/10/30 03:28:57;;;;;;;5.37;2.97;;;7.90;99.90;;;;;;5058399;28;20432;-59
2023/10/30 03:31:23;;;;;;;4.20;3.00;;;7.90;99.90;;;;;;5070182;28;20570;-59
2023/10/30 03:33:49;;;;;;;3.90;3.00;;;7.80;99.90;;;;;;5066371;28;21653;-59
2023/10/30 03:36:24;;;;;;;5.70;3.30;;;7.80;99.90;;;;;;5060627;28;20174;-60
2023/10/30 03:38:51;;;;;;;8.03;3.50;;;7.70;99.90;;;;;;5065925;28;20190;-59
2023/10/30 03:41:19;;;;;;;5.07;3.80;;;7.70;99.90;;;;;;5061664;28;20436;-59
2023/10/30 03:43:45;;;;;;;8.63;3.60;;;7.70;99.90;;;;;;5064949;28;20439;-58
2023/10/30 03:46:11;;;;;;;27.60;5.30;;;7.60;99.90;;;;;;5060031;28;20427;-59
2023/10/30 03:48:37;;;;;;;12.10;3.57;;;7.70;99.90;;;;;;5071516;28;20198;-59
2023/10/30 03:51:03;;;;;;;7.83;4.00;;;7.60;99.90;;;;;;5066849;28;20412;-59
2023/10/30 03:53:29;;;;;;;4.23;3.50;;;7.60;99.90;;;;;;5065551;28;20304;-59
2023/10/30 03:55:55;;;;;;;7.10;4.07;;;7.60;99.90;;;;;;5062476;28;20427;-59
2023/10/30 03:58:21;;;;;;;5.90;3.83;;;7.60;99.90;;;;;;5067585;28;20405;-59
2023/10/30 04:00:46;;;;;;;17.87;4.17;;;7.60;99.90;;;;;;5064897;28;20187;-59
2023/10/30 04:03:12;;;;;;;14.10;3.60;;;7.50;99.90;;;;;;5060488;28;20185;-59
2023/10/30 04:05:38;;;;;;;7.87;3.30;;;7.50;99.90;;;;;;5066021;28;20637;-59
2023/10/30 04:08:04;;;;;;;3.90;3.13;;;7.50;99.90;;;;;;5067079;28;20240;-59
2023/10/30 04:10:30;;;;;;;3.60;3.00;;;7.50;99.90;;;;;;5061340;28;20190;-59
2023/10/30 04:12:56;;;;;;;4.20;3.60;;;7.50;99.90;;;;;;5065982;28;20467;-59
2023/10/30 04:15:22;;;;;;;5.53;3.40;;;7.50;99.90;;;;;;5062816;28;20817;-59
2023/10/30 04:17:47;;;;;;;11.60;3.60;;;7.50;99.90;;;;;;5066028;28;20416;-59
2023/10/30 04:20:13;;;;;;;6.80;3.33;;;7.40;99.90;;;;;;5064094;28;20289;-60
2023/10/30 04:22:39;;;;;;;4.60;2.83;;;7.40;99.90;;;;;;5063816;28;20236;-59
2023/10/30 04:25:06;;;;;;;7.97;3.40;;;7.40;99.90;;;;;;5065459;28;20175;-60
2023/10/30 04:27:33;;;;;;;37.47;4.93;;;7.40;99.90;;;;;;5064657;28;20653;-59
2023/10/30 04:29:59;;;;;;;8.00;3.10;;;7.40;99.90;;;;;;5064820;28;20432;-59
2023/10/30 04:32:25;;;;;;;20.60;4.13;;;7.30;99.90;;;;;;5065637;28;20482;-59
2023/10/30 04:34:50;;;;;;;3.20;2.90;;;7.30;99.90;;;;;;5065069;28;20461;-59
2023/10/30 04:37:18;;;;;;;6.60;3.07;;;7.30;99.90;;;;;;5065612;28;20273;-59
2023/10/30 04:39:44;;;;;;;6.83;3.27;;;7.20;99.90;;;;;;5064899;28;20269;-60
2023/10/30 04:42:09;;;;;;;6.37;3.57;;;7.20;99.90;;;;;;5065572;28;20437;-59
2023/10/30 04:44:35;;;;;;;11.37;3.60;;;7.20;99.90;;;;;;5065225;28;20633;-59
2023/10/30 04:47:00;;;;;;;29.87;4.10;;;7.20;99.90;;;;;;5064445;28;20193;-58
2023/10/30 04:49:26;;;;;;;16.83;4.47;;;7.20;99.90;;;;;;5063567;28;20245;-59
2023/10/30 04:51:52;;;;;;;12.80;3.00;;;7.20;99.90;;;;;;5058910;28;20229;-59
2023/10/30 04:54:17;;;;;;;38.20;4.73;;;7.20;99.90;;;;;;5061531;28;20195;-59
2023/10/30 04:56:43;;;;;;;11.33;3.10;;;7.10;99.90;;;;;;5057278;28;20190;-59
2023/10/30 04:59:08;;;;;;;7.20;3.50;;;7.10;99.90;;;;;;5059536;28;20178;-60
2023/10/30 05:01:34;;;;;;;62.13;5.87;;;7.00;99.90;;;;;;5063486;28;20853;-60
2023/10/30 05:04:01;;;;;;;24.43;3.83;;;7.00;99.90;;;;;;5067913;28;20267;-59
2023/10/30 05:06:27;;;;;;;38.40;4.63;;;7.00;99.90;;;;;;5066451;28;20216;-59
2023/10/30 05:08:52;;;;;;;11.83;3.20;;;6.90;99.90;;;;;;5066061;28;20929;-57
2023/10/30 05:11:18;;;;;;;49.50;5.13;;;6.90;99.90;;;;;;5065398;28;20307;-56
2023/10/30 05:13:44;;;;;;;13.43;3.30;;;6.90;99.90;;;;;;5069708;28;20631;-57
2023/10/30 05:16:09;;;;;;;29.20;3.60;;;6.80;99.90;;;;;;5061941;28;20197;-55
2023/10/30 05:18:35;;;;;;;37.37;4.43;;;6.80;99.90;;;;;;5066456;28;20186;-56
2023/10/30 05:21:01;;;;;;;10.27;2.93;;;6.80;99.90;;;;;;5067440;28;20691;-56
2023/10/30 05:23:27;;;;;;;13.17;3.17;;;6.70;99.90;;;;;;5066006;28;20170;-58
2023/10/30 05:25:53;;;;;;;28.13;3.87;;;6.70;99.90;;;;;;5062624;28;20489;-59
2023/10/30 05:28:18;;;;;;;26.20;4.53;;;6.70;99.90;;;;;;5063966;28;20240;-60
2023/10/30 05:30:44;;;;;;;17.20;3.37;;;6.70;99.90;;;;;;5060615;28;20209;-60
2023/10/30 05:33:10;;;;;;;16.30;3.60;;;6.70;99.90;;;;;;5065360;28;21156;-60
2023/10/30 05:35:35;;;;;;;12.23;3.00;;;6.60;99.90;;;;;;5067552;28;20209;-59
2023/10/30 05:38:04;;;;;;;25.60;3.80;;;6.60;99.90;;;;;;5069510;28;20289;-59
2023/10/30 05:40:29;;;;;;;62.03;6.10;;;6.60;99.90;;;;;;5062794;28;20186;-59
2023/10/30 05:42:55;;;;;;;41.83;6.07;;;6.60;99.90;;;;;;5060462;28;20985;-60
2023/10/30 05:45:20;;;;;;;25.97;4.70;;;6.60;99.90;;;;;;5066416;28;20349;-59
2023/10/30 05:47:48;;;;;;;53.10;5.63;;;6.60;99.90;;;;;;5062600;28;20427;-57
2023/10/30 05:50:13;;;;;;;39.63;4.50;;;6.50;99.90;;;;;;5057051;28;20191;-59
2023/10/30 05:52:39;;;;;;;9.80;3.63;;;6.50;99.90;;;;;;5067190;28;20543;-60
2023/10/30 05:55:05;;;;;;;21.63;3.83;;;6.50;99.90;;;;;;5068398;28;20874;-60
2023/10/30 05:57:33;;;;;;;17.07;4.20;;;6.60;99.90;;;;;;5066445;28;20197;-59
2023/10/30 05:59:59;;;;;;;6.57;3.40;;;6.60;99.90;;;;;;5063379;28;20428;-60
2023/10/30 06:02:24;;;;;;;45.57;5.10;;;6.50;99.90;;;;;;5063051;28;20453;-61
2023/10/30 06:04:50;;;;;;;40.70;5.10;;;6.50;99.90;;;;;;5065923;28;20189;-60
2023/10/30 06:07:16;;;;;;;17.33;3.60;;;6.50;99.90;;;;;;5070278;28;20747;-59
2023/10/30 06:09:43;;;;;;;29.47;4.20;;;6.40;99.90;;;;;;5069125;28;20320;-60
2023/10/30 06:12:09;;;;;;;13.97;3.70;;;6.40;99.90;;;;;;5062451;28;20967;-60
2023/10/30 06:14:35;;;;;;;17.43;3.93;;;6.40;99.90;;;;;;5067741;28;20471;-59
2023/10/30 06:17:01;;;;;;;14.93;3.73;;;6.40;99.90;;;;;;5067241;28;20194;-59
2023/10/30 06:19:28;;;;;;;27.70;4.20;;;6.40;99.90;;;;;;5066853;28;20282;-60
2023/10/30 06:21:54;;;;;;;13.77;3.10;;;6.40;99.90;;;;;;5065416;28;20961;-59
2023/10/30 06:24:19;;;;;;;33.20;4.60;;;6.40;99.90;;;;;;5066326;28;20413;-59
2023/10/30 06:26:45;;;;;;;28.40;4.47;;;6.40;99.90;;;;;;5056094;28;20193;-60
2023/10/30 06:29:10;;;;;;;33.70;4.73;;;6.40;99.90;;;;;;5064999;28;20731;-59
2023/10/30 06:31:36;;;;;;;30.77;4.50;;;6.40;99.90;;;;;;5057418;28;20240;-60
2023/10/30 06:34:02;;;;;;;20.47;3.90;;;6.30;99.90;;;;;;5061341;28;20571;-61
2023/10/30 06:36:27;;;;;;;29.93;5.13;;;6.30;99.90;;;;;;5072612;28;20179;-59
2023/10/30 06:38:55;;;;;;;35.10;4.97;;;6.30;99.90;;;;;;5068499;28;20182;-59
2023/10/30 06:41:20;;;;;;;23.17;4.30;;;6.30;99.90;;;;;;5069347;28;20194;-59
2023/10/30 06:43:46;;;;;;;17.47;3.67;;;6.30;99.90;;;;;;5065631;28;20806;-59
2023/10/30 06:46:12;;;;;;;18.23;4.37;;;6.30;99.90;;;;;;5063935;28;20671;-60
2023/10/30 06:48:37;;;;;;;17.07;3.33;;;6.30;99.90;;;;;;5064250;28;20242;-59
2023/10/30 06:51:03;;;;;;;27.63;4.50;;;6.30;99.90;;;;;;5065936;28;20182;-59
2023/10/30 06:53:29;;;;;;;9.20;3.47;;;6.30;99.90;;;;;;5066433;28;20186;-58
2023/10/30 06:55:54;;;;;;;15.43;3.70;;;6.30;99.90;;;;;;5066424;28;20425;-59
2023/10/30 06:58:23;;;;;;;3.90;3.40;;;6.30;99.90;;;;;;5062353;28;20183;-58
2023/10/30 07:00:49;;;;;;;6.80;2.80;;;6.30;99.90;;;;;;5066049;28;20225;-59
2023/10/30 07:03:15;;;;;;;4.33;2.97;;;6.30;99.90;;;;;;5064255;28;20428;-60
2023/10/30 07:05:42;;;;;;;9.53;3.23;;;6.40;99.90;;;;;;5064894;28;20965;-59
2023/10/30 07:08:07;;;;;;;3.80;3.40;;;6.40;99.90;;;;;;5056809;28;20678;-59
2023/10/30 07:10:33;;;;;;;4.90;3.40;;;6.50;99.90;;;;;;5058569;28;20444;-60
2023/10/30 07:12:59;;;;;;;6.53;3.70;;;6.50;99.90;;;;;;5062129;28;20201;-58
2023/10/30 07:15:26;;;;;;;5.20;4.47;;;6.50;99.90;;;;;;5060270;28;20198;-58
2023/10/30 07:17:55;;;;;;;5.53;3.50;;;6.60;99.90;;;;;;5063148;28;20214;-56
2023/10/30 07:20:21;;;;;;;4.17;3.60;;;6.60;99.90;;;;;;5063511;28;20424;-59
2023/10/30 07:22:46;;;;;;;3.63;3.30;;;6.60;99.90;;;;;;5065101;28;20491;-57
2023/10/30 07:25:12;;;;;;;4.13;3.67;;;6.70;99.90;;;;;;5059827;28;20258;-58
2023/10/30 07:27:37;;;;;;;5.60;3.83;;;6.80;99.90;;;;;;5064470;28;20182;-58
2023/10/30 07:30:03;;;;;;;3.63;3.27;;;6.80;99.90;;;;;;5070335;28;20185;-57
2023/10/30 07:32:29;;;;;;;5.57;4.20;;;6.90;99.90;;;;;;5068295;28;20205;-57
2023/10/30 07:34:55;;;;;;;5.77;4.10;;;6.90;99.90;;;;;;5065253;28;20190;-58
2023/10/30 07:37:20;;;;;;;11.13;4.23;;;7.00;99.90;;;;;;5066633;28;20413;-58
2023/10/30 07:39:46;;;;;;;6.60;4.23;;;7.00;99.90;;;;;;5064660;28;20273;-58
2023/10/30 07:42:12;;;;;;;10.30;4.10;;;7.00;99.90;;;;;;5064870;28;20190;-58
2023/10/30 07:44:37;;;;;;;9.13;4.20;;;7.00;99.90;;;;;;5065775;28;20614;-57
2023/10/30 07:47:04;;;;;;;9.63;5.40;;;7.10;99.90;;;;;;5066754;28;20178;-59
2023/10/30 07:49:29;;;;;;;10.87;5.50;;;7.10;99.90;;;;;;5065131;28;20577;-58
2023/10/30 07:51:55;;;;;;;7.90;4.70;;;7.10;99.90;;;;;;5070745;28;20993;-58
2023/10/30 07:54:22;;;;;;;13.00;5.17;;;7.20;99.90;;;;;;5062063;28;20214;-59
2023/10/30 07:56:48;;;;;;;7.50;4.97;;;7.30;99.90;;;;;;5064745;28;20283;-58
2023/10/30 07:59:14;;;;;;;8.53;5.27;;;7.30;99.90;;;;;;5064924;28;20950;-58
2023/10/30 08:01:40;;;;;;;14.50;6.83;;;7.40;99.90;;;;;;5064515;28;20217;-59
2023/10/30 08:04:06;;;;;;;10.53;6.87;;;7.50;99.90;;;;;;5064593;28;20428;-58
2023/10/30 08:06:32;;;;;;;10.37;6.30;;;7.50;99.90;;;;;;5061320;28;20248;-59
2023/10/30 08:08:58;;;;;;;11.90;7.10;;;7.60;99.90;;;;;;5061469;28;20514;-58
2023/10/30 08:11:24;;;;;;;14.47;7.87;;;7.70;99.90;;;;;;5062706;28;21830;-58
2023/10/30 08:13:49;;;;;;;12.27;8.00;;;7.80;99.90;;;;;;5066175;28;20292;-58
2023/10/30 08:16:15;;;;;;;11.40;7.97;;;7.80;99.90;;;;;;5061780;28;20186;-58
2023/10/30 08:18:41;;;;;;;10.77;7.47;;;7.90;99.90;;;;;;5066781;28;20182;-57
2023/10/30 08:21:09;;;;;;;14.53;8.53;;;8.00;99.90;;;;;;5062943;28;20179;-57
2023/10/30 08:23:37;;;;;;;10.50;7.90;;;8.10;99.90;;;;;;5063591;28;20186;-59
2023/10/30 08:26:04;;;;;;;11.03;8.07;;;8.20;99.90;;;;;;5062616;28;20447;-58
2023/10/30 08:28:30;;;;;;;16.70;9.07;;;8.30;99.90;;;;;;5064275;28;20432;-57
2023/10/30 08:30:56;;;;;;;14.73;8.20;;;8.40;99.90;;;;;;5063700;28;20798;-58
2023/10/30 08:33:21;;;;;;;13.80;8.80;;;8.50;99.90;;;;;;5066154;28;20205;-58
2023/10/30 08:35:47;;;;;;;13.27;8.00;;;8.60;99.90;;;;;;5062090;28;20230;-59
2023/10/30 08:38:13;;;;;;;12.87;8.47;;;8.70;99.90;;;;;;5068372;28;20175;-58
2023/10/30 08:40:38;;;;;;;10.40;7.57;;;8.80;99.90;;;;;;5062429;28;20447;-58
2023/10/30 08:43:04;;;;;;;13.07;9.17;;;8.90;99.90;;;;;;5066485;28;20198;-58
2023/10/30 08:45:30;;;;;;;11.13;7.37;;;9.00;99.90;;;;;;5061678;28;20179;-59
2023/10/30 08:47:55;;;;;;;13.60;8.57;;;9.10;99.90;;;;;;5069253;28;20185;-57
2023/10/30 08:50:21;;;;;;;14.00;9.03;;;9.20;99.90;;;;;;5069306;28;20179;-58
2023/10/30 08:52:47;;;;;;;11.37;7.13;;;9.20;99.90;;;;;;5065736;28;20260;-58
2023/10/30 08:55:13;;;;;;;10.80;7.90;;;9.30;99.90;;;;;;5064683;28;20859;-58
2023/10/30 08:57:38;;;;;;;10.90;7.77;;;9.30;99.90;;;;;;5070973;28;20439;-59
2023/10/30 09:00:07;;;;;;;12.13;7.87;;;9.40;99.90;;;;;;5066385;28;20170;-57
2023/10/30 09:02:36;;;;;;;13.07;9.10;;;9.50;99.90;;;;;;5067483;28;20563;-58
2023/10/30 09:05:03;;;;;;;11.03;8.73;;;9.50;99.90;;;;;;5064950;28;20436;-58
2023/10/30 09:07:29;;;;;;;11.90;9.00;;;9.60;99.90;;;;;;5067688;28;20927;-58
2023/10/30 09:09:55;;;;;;;12.50;8.20;;;9.70;99.90;;;;;;5068913;28;20436;-58
2023/10/30 09:12:21;;;;;;;13.30;9.33;;;9.70;99.90;;;;;;5068546;28;20458;-57
2023/10/30 09:14:46;;;;;;;12.37;8.30;;;9.80;99.90;;;;;;5066654;28;20214;-58
2023/10/30 09:17:12;;;;;;;12.20;7.57;;;9.80;99.90;;;;;;5068935;28;20178;-58
2023/10/30 09:19:38;;;;;;;14.87;7.90;;;9.90;99.90;;;;;;5066916;28;20212;-58
2023/10/30 09:22:04;;;;;;;11.50;9.03;;;9.90;99.90;;;;;;5064101;28;20202;-59
2023/10/30 09:24:30;;;;;;;14.00;8.80;;;10.00;99.90;;;;;;5068581;28;20492;-58
2023/10/30 09:26:56;;;;;;;12.33;8.20;;;10.00;99.90;;;;;;5066850;28;20531;-57
2023/10/30 09:29:21;;;;;;;10.47;8.00;;;10.10;99.90;;;;;;5069938;28;20191;-58
2023/10/30 09:31:49;;;;;;;12.70;8.20;;;10.10;99.90;;;;;;5063726;28;20198;-58
2023/10/30 09:34:15;;;;;;;11.60;8.20;;;10.20;99.90;;;;;;5065907;28;20202;-59
2023/10/30 09:36:41;;;;;;;13.30;9.33;;;10.20;99.90;;;;;;5067058;28;20432;-59
2023/10/30 09:39:07;;;;;;;13.17;9.00;;;10.30;99.90;;;;;;5068255;28;20486;-58
2023/10/30 09:41:43;;;;;;;10.73;7.80;;;10.30;99.90;;;;;;5063564;28;20226;-57
2023/10/30 09:44:10;;;;;;;16.53;8.20;;;10.40;99.90;;;;;;5063878;28;20859;-58
2023/10/30 09:46:38;;;;;;;16.10;9.43;;;10.40;99.90;;;;;;5059617;28;20574;-57
2023/10/30 09:49:04;;;;;;;13.83;8.93;;;10.50;99.90;;;;;;5069537;28;20900;-57
2023/10/30 09:51:30;;;;;;;23.00;7.90;;;10.50;99.90;;;;;;5063337;28;20817;-58
2023/10/30 09:53:58;;;;;;;13.43;8.20;;;10.60;99.90;;;;;;5059779;28;20604;-57
2023/10/30 09:56:26;;;;;;;11.27;8.00;;;10.60;99.90;;;;;;5063825;28;20440;-58
2023/10/30 09:58:52;;;;;;;15.33;8.87;;;10.70;99.90;;;;;;5061121;28;20440;-57
2023/10/30 10:01:19;;;;;;;14.03;8.43;;;10.80;99.90;;;;;;5062114;28;20510;-57
2023/10/30 10:03:44;;;;;;;12.50;8.77;;;10.80;99.90;;;;;;5063394;28;20444;-57
2023/10/30 10:06:10;;;;;;;13.17;8.67;;;10.90;99.90;;;;;;5069776;28;20439;-59
2023/10/30 10:08:38;;;;;;;15.23;9.50;;;11.00;99.90;;;;;;5058932;28;20603;-57
2023/10/30 10:11:05;;;;;;;15.10;8.97;;;11.00;99.90;;;;;;5068407;28;20251;-57
2023/10/30 10:13:33;;;;;;;12.50;7.97;;;11.10;99.90;;;;;;5066210;28;20916;-56
2023/10/30 10:16:00;;;;;;;11.47;7.93;;;11.20;99.90;;;;;;5065173;28;20529;-58
2023/10/30 10:18:25;;;;;;;10.77;7.90;;;11.20;99.90;;;;;;5065829;28;20976;-57
2023/10/30 10:21:03;;;;;;;13.83;7.23;;;11.20;99.90;;;;;;5062459;28;20432;-57
2023/10/30 10:23:31;;;;;;;7.87;6.20;;;11.30;99.90;;;;;;5063283;28;20177;-58
2023/10/30 10:25:58;;;;;;;9.70;6.53;;;11.30;99.90;;;;;;5062963;28;20443;-58
2023/10/30 10:28:25;;;;;;;7.77;6.23;;;11.40;99.90;;;;;;5072024;28;20421;-58
2023/10/30 10:30:54;;;;;;;9.10;6.20;;;11.40;99.90;;;;;;5066575;28;20524;-57
2023/10/30 10:33:22;;;;;;;10.07;7.00;;;11.50;99.90;;;;;;5064826;28;20424;-58
2023/10/30 10:35:54;;;;;;;10.40;5.90;;;11.50;99.90;;;;;;5066142;28;20476;-57
2023/10/30 10:38:24;;;;;;;12.97;6.60;;;11.60;99.90;;;;;;5063474;28;20419;-59
2023/10/30 10:40:53;;;;;;;7.47;5.93;;;11.60;99.90;;;;;;5069573;28;20445;-58
2023/10/30 10:43:20;;;;;;;12.50;5.87;;;11.70;99.90;;;;;;5064363;28;20429;-58
2023/10/30 10:45:53;;;;;;;7.20;5.70;;;11.70;99.90;;;;;;5066843;28;20431;-58
2023/10/30 10:48:21;;;;;;;7.30;5.20;;;11.70;99.90;;;;;;5065093;28;20584;-59
2023/10/30 10:50:47;;;;;;;8.50;6.13;;;11.80;99.90;;;;;;5062422;28;20485;-57
2023/10/30 10:53:14;;;;;;;10.07;5.97;;;11.90;99.90;;;;;;5066417;28;20460;-56
2023/10/30 10:55:47;;;;;;;7.70;5.07;;;11.90;99.90;;;;;;5070966;28;20500;-57
2023/10/30 10:58:47;;;;;;;11.20;5.93;;;12.00;99.90;;;;;;5067430;28;20512;-57
2023/10/30 11:01:19;;;;;;;8.13;5.40;;;12.20;99.90;;;;;;5064784;28;20517;-58
2023/10/30 11:03:45;;;;;;;10.77;5.20;;;12.30;99.90;;;;;;5061462;28;20490;-58
2023/10/30 11:06:13;;;;;;;8.13;5.03;;;12.40;99.90;;;;;;5063082;28;20467;-57
2023/10/30 11:08:50;;;;;;;10.10;5.00;;;12.50;99.90;;;;;;5067296;28;20502;-57
2023/10/30 11:11:27;;;;;;;6.90;5.20;;;12.70;99.90;;;;;;5066401;28;20503;-57
2023/10/30 11:14:28;;;;;;;7.40;4.40;;;12.80;99.90;;;;;;5065523;28;20553;-58
2023/10/30 11:17:05;;;;;;;4.83;4.10;;;13.00;99.90;;;;;;5059606;28;20447;-58
2023/10/30 11:19:32;;;;;;;5.10;3.77;;;13.20;99.90;;;;;;5064608;28;20420;-58
2023/10/30 11:21:59;;;;;;;7.17;4.27;;;13.30;99.90;;;;;;5060461;28;21227;-58
2023/10/30 11:24:38;;;;;;;12.87;4.20;;;13.40;99.90;;;;;;5062899;28;20436;-58
2023/10/30 11:27:25;;;;;;;4.77;3.90;;;13.50;99.90;;;;;;5057770;28;20617;-58
2023/10/30 11:30:01;;;;;;;5.43;3.50;;;13.70;99.90;;;;;;5063387;28;20438;-58
2023/10/30 11:32:29;;;;;;;5.20;3.80;;;13.80;99.90;;;;;;5066285;28;20992;-58
2023/10/30 11:34:55;;;;;;;11.10;3.87;;;13.80;99.90;;;;;;5064740;28;20858;-58
2023/10/30 11:37:22;;;;;;;6.07;3.30;;;13.90;99.90;;;;;;5063605;28;20441;-59
2023/10/30 11:39:51;;;;;;;6.97;3.67;;;13.80;99.90;;;;;;5065095;28;20548;-58
2023/10/30 11:42:22;;;;;;;5.73;3.10;;;13.80;99.90;;;;;;5064692;28;20505;-58
2023/10/30 11:44:49;;;;;;;11.03;3.77;;;13.90;99.90;;;;;;5063838;28;20515;-58
2023/10/30 11:47:14;;;;;;;7.37;3.30;;;13.90;99.90;;;;;;5066662;28;20470;-58
2023/10/30 11:49:42;;;;;;;3.20;2.90;;;13.90;99.90;;;;;;5063535;28;20433;-58
2023/10/30 11:52:13;;;;;;;3.43;3.10;;;13.90;99.90;;;;;;5066352;28;20195;-58
2023/10/30 11:54:40;;;;;;;8.70;2.80;;;13.80;99.90;;;;;;5070421;28;20456;-58
2023/10/30 11:57:06;;;;;;;12.83;3.10;;;13.80;99.90;;;;;;5063425;28;20427;-58
2023/10/30 11:59:32;;;;;;;4.37;2.93;;;13.80;99.90;;;;;;5062442;28;20953;-58
2023/10/30 12:01:58;;;;;;;5.00;2.77;;;13.70;99.90;;;;;;5062725;28;20451;-58
2023/10/30 12:04:25;;;;;;;3.77;2.80;;;13.70;99.90;;;;;;5067809;28;20193;-58
2023/10/30 12:06:51;;;;;;;3.60;2.77;;;13.70;99.90;;;;;;5065154;28;20321;-58
2023/10/30 12:09:17;;;;;;;3.80;2.60;;;13.60;99.90;;;;;;5067683;28;20451;-58
2023/10/30 12:11:43;;;;;;;6.30;2.83;;;13.60;99.90;;;;;;5070211;28;20456;-57
2023/10/30 12:14:11;;;;;;;5.53;2.57;;;13.50;99.90;;;;;;5065878;28;20194;-58
2023/10/30 12:16:37;;;;;;;6.60;2.80;;;13.50;99.90;;;;;;5066283;28;20433;-57
2023/10/30 12:19:03;;;;;;;8.00;2.73;;;13.40;99.90;;;;;;5066928;28;20435;-58
2023/10/30 12:21:33;;;;;;;6.93;3.50;;;13.40;99.90;;;;;;5067514;28;20190;-58
2023/10/30 12:23:59;;;;;;;4.57;2.60;;;13.40;99.90;;;;;;5055451;28;20460;-58
2023/10/30 12:26:27;;;;;;;2.80;2.30;;;13.30;99.90;;;;;;5065475;28;20472;-57
2023/10/30 12:28:58;;;;;;;6.70;2.70;;;13.30;99.90;;;;;;5068784;28;20503;-58
2023/10/30 12:31:26;;;;;;;4.47;2.53;;;13.30;99.90;;;;;;5066357;28;20508;-58
2023/10/30 12:34:11;;;;;;;6.70;3.33;;;13.30;99.90;;;;;;5063601;28;20469;-58
2023/10/30 12:36:38;;;;;;;3.87;2.60;;;13.30;99.90;;;;;;5071348;28;20447;-58
2023/10/30 12:39:12;;;;;;;4.80;2.93;;;13.30;99.90;;;;;;5070715;28;20423;-57
2023/10/30 12:41:38;;;;;;;3.40;2.33;;;13.30;99.90;;;;;;5066497;28;20487;-58
2023/10/30 12:44:03;;;;;;;7.90;3.20;;;13.30;99.90;;;;;;5068422;28;20424;-57
2023/10/30 12:46:29;;;;;;;3.70;3.30;;;13.40;99.90;;;;;;5072999;28;20178;-57
2023/10/30 12:48:55;;;;;;;8.40;3.30;;;13.40;99.90;;;;;;5069084;28;20182;-58